Station History

Weather Underground - logo

Station Historical Data
Daily Summary for February 8, 2018 Units:  Both    English   Metric
« Previous Day
Next Day »
Daily Weekly Monthly Yearly Custom
  High: Low: Average:
Temperature: 75.4 °F /  24.1 °C 43.6 °F /  6.4 °C 57.7 °F /  14.3 °C
Dew Point: 53.6 °F /  12 °C 41.0 °F /  5 °C 47.3 °F /  8.5 °C
Humidity: 91 % 39 % 71 %
Wind Speed: 8.1 mph /  13 km/h - 0.5 mph /  0.8 km/h
Wind Gust: 8.1 mph /  13 km/h - -
Wind:- - WSW
Pressure: 30.26 in /  1024.6 hPa 30.08 in /  1018.5 hPa -
Precipitation: 0.00 in /  0 mm    
Historical Graphs
 
 
Tabular Data for February 8, 2018
Time Temperature Dew Point Pressure Wind Wind Speed Wind Gust Humidity Rainfall Rate (Hourly)
00:00 50.8 °F /  10.4 °C 45.8 °F /  7.7 °C 30.23 in /  1023.6 hPa SE 1.2 mph /  1.9 km/h   83 % 0.00 in /  0 mm
00:05 50.7 °F /  10.4 °C 45.7 °F /  7.6 °C 30.23 in /  1023.6 hPa Calm     83 % 0.00 in /  0 mm
00:10 50.3 °F /  10.2 °C 45.3 °F /  7.4 °C 30.24 in /  1023.9 hPa Calm     83 % 0.00 in /  0 mm
00:15 49.8 °F /  9.9 °C 45.2 °F /  7.3 °C 30.24 in /  1023.9 hPa Calm     84 % 0.00 in /  0 mm
00:20 49.5 °F /  9.7 °C 45.2 °F /  7.3 °C 30.24 in /  1023.9 hPa Calm     85 % 0.00 in /  0 mm
00:25 49.3 °F /  9.6 °C 45.3 °F /  7.4 °C 30.24 in /  1023.9 hPa Calm     86 % 0.00 in /  0 mm
00:30 49.1 °F /  9.5 °C 45.1 °F /  7.3 °C 30.23 in /  1023.6 hPa Calm     86 % 0.00 in /  0 mm
00:35 49.3 °F /  9.6 °C 45.3 °F /  7.4 °C 30.23 in /  1023.6 hPa Calm     86 % 0.00 in /  0 mm
00:40 49.3 °F /  9.6 °C 45.0 °F /  7.2 °C 30.23 in /  1023.6 hPa Calm     85 % 0.00 in /  0 mm
00:45 49.2 °F /  9.6 °C 44.9 °F /  7.2 °C 30.23 in /  1023.6 hPa Calm     85 % 0.00 in /  0 mm
00:50 49.3 °F /  9.6 °C 45.0 °F /  7.2 °C 30.23 in /  1023.6 hPa Calm     85 % 0.00 in /  0 mm
00:55 49.5 °F /  9.7 °C 45.2 °F /  7.3 °C 30.23 in /  1023.6 hPa Calm     85 % 0.00 in /  0 mm
01:00 49.6 °F /  9.8 °C 45.0 °F /  7.2 °C 30.23 in /  1023.6 hPa Calm     84 % 0.00 in /  0 mm
01:05 49.6 °F /  9.8 °C 45.0 °F /  7.2 °C 30.23 in /  1023.6 hPa Calm     84 % 0.00 in /  0 mm
01:10 49.4 °F /  9.7 °C 44.8 °F /  7.1 °C 30.23 in /  1023.6 hPa Calm     84 % 0.00 in /  0 mm
01:15 49.1 °F /  9.5 °C 44.5 °F /  6.9 °C 30.24 in /  1023.9 hPa Calm     84 % 0.00 in /  0 mm
01:21 48.9 °F /  9.4 °C 44.6 °F /  7 °C 30.24 in /  1023.9 hPa Calm     85 % 0.00 in /  0 mm
01:26 48.8 °F /  9.3 °C 44.5 °F /  6.9 °C 30.24 in /  1023.9 hPa Calm     85 % 0.00 in /  0 mm
01:31 48.7 °F /  9.3 °C 44.7 °F /  7.1 °C 30.24 in /  1023.9 hPa Calm     86 % 0.00 in /  0 mm
01:36 48.5 °F /  9.2 °C 44.5 °F /  6.9 °C 30.24 in /  1023.9 hPa Calm     86 % 0.00 in /  0 mm
01:41 48.4 °F /  9.1 °C 44.7 °F /  7.1 °C 30.24 in /  1023.9 hPa Calm     87 % 0.00 in /  0 mm
01:46 48.3 °F /  9.1 °C 44.6 °F /  7 °C 30.23 in /  1023.6 hPa Calm     87 % 0.00 in /  0 mm
01:51 48.0 °F /  8.9 °C 44.3 °F /  6.8 °C 30.23 in /  1023.6 hPa Calm     87 % 0.00 in /  0 mm
01:56 47.9 °F /  8.8 °C 44.2 °F /  6.8 °C 30.23 in /  1023.6 hPa Calm     87 % 0.00 in /  0 mm
02:01 47.8 °F /  8.8 °C 44.4 °F /  6.9 °C 30.23 in /  1023.6 hPa Calm     88 % 0.00 in /  0 mm
02:06 47.6 °F /  8.7 °C 44.2 °F /  6.8 °C 30.23 in /  1023.6 hPa SE 8.1 mph /  13 km/h 8.1 mph /  13 km/h 88 % 0.00 in /  0 mm
02:11 47.5 °F /  8.6 °C 44.4 °F /  6.9 °C 30.23 in /  1023.6 hPa Calm     89 % 0.00 in /  0 mm
02:16 47.7 °F /  8.7 °C 44.6 °F /  7 °C 30.23 in /  1023.6 hPa Calm     89 % 0.00 in /  0 mm
02:21 47.9 °F /  8.8 °C 44.5 °F /  6.9 °C 30.23 in /  1023.6 hPa Calm     88 % 0.00 in /  0 mm
02:26 47.9 °F /  8.8 °C 44.5 °F /  6.9 °C 30.22 in /  1023.2 hPa Calm     88 % 0.00 in /  0 mm
02:31 47.9 °F /  8.8 °C 44.5 °F /  6.9 °C 30.22 in /  1023.2 hPa Calm     88 % 0.00 in /  0 mm
02:36 47.7 °F /  8.7 °C 44.3 °F /  6.8 °C 30.23 in /  1023.6 hPa Calm     88 % 0.00 in /  0 mm
02:41 47.6 °F /  8.7 °C 44.2 °F /  6.8 °C 30.22 in /  1023.2 hPa Calm     88 % 0.00 in /  0 mm
02:46 47.6 °F /  8.7 °C 44.2 °F /  6.8 °C 30.22 in /  1023.2 hPa Calm     88 % 0.00 in /  0 mm
02:51 47.5 °F /  8.6 °C 44.1 °F /  6.7 °C 30.22 in /  1023.2 hPa Calm     88 % 0.00 in /  0 mm
02:56 47.4 °F /  8.6 °C 44.0 °F /  6.7 °C 30.22 in /  1023.2 hPa Calm     88 % 0.00 in /  0 mm
03:01 47.3 °F /  8.5 °C 43.9 °F /  6.6 °C 30.22 in /  1023.2 hPa Calm     88 % 0.00 in /  0 mm
03:06 47.2 °F /  8.4 °C 43.8 °F /  6.6 °C 30.22 in /  1023.2 hPa Calm     88 % 0.00 in /  0 mm
03:11 47.2 °F /  8.4 °C 43.8 °F /  6.6 °C 30.22 in /  1023.2 hPa Calm     88 % 0.00 in /  0 mm
03:16 47.4 °F /  8.6 °C 44.0 °F /  6.7 °C 30.22 in /  1023.2 hPa Calm     88 % 0.00 in /  0 mm
03:21 47.4 °F /  8.6 °C 44.0 °F /  6.7 °C 30.21 in /  1022.9 hPa Calm     88 % 0.00 in /  0 mm
03:26 47.3 °F /  8.5 °C 43.9 °F /  6.6 °C 30.21 in /  1022.9 hPa Calm     88 % 0.00 in /  0 mm
03:31 47.0 °F /  8.3 °C 43.6 °F /  6.4 °C 30.21 in /  1022.9 hPa Calm     88 % 0.00 in /  0 mm
03:36 46.5 °F /  8.1 °C 42.5 °F /  5.8 °C 30.22 in /  1023.2 hPa Calm     86 % 0.00 in /  0 mm
03:41 46.0 °F /  7.8 °C 42.3 °F /  5.7 °C 30.22 in /  1023.2 hPa Calm     87 % 0.00 in /  0 mm
03:46 45.7 °F /  7.6 °C 42.3 °F /  5.7 °C 30.22 in /  1023.2 hPa Calm     88 % 0.00 in /  0 mm
03:51 45.7 °F /  7.6 °C 42.9 °F /  6.1 °C 30.22 in /  1023.2 hPa Calm     90 % 0.00 in /  0 mm
03:56 45.4 °F /  7.4 °C 42.1 °F /  5.6 °C 30.22 in /  1023.2 hPa Calm     88 % 0.00 in /  0 mm
04:01 45.0 °F /  7.2 °C 41.7 °F /  5.4 °C 30.22 in /  1023.2 hPa Calm     88 % 0.00 in /  0 mm
04:06 44.5 °F /  6.9 °C 41.5 °F /  5.3 °C 30.22 in /  1023.2 hPa Calm     89 % 0.00 in /  0 mm
04:11 44.2 °F /  6.8 °C 41.2 °F /  5.1 °C 30.22 in /  1023.2 hPa Calm     89 % 0.00 in /  0 mm
04:16 44.1 °F /  6.7 °C 41.4 °F /  5.2 °C 30.22 in /  1023.2 hPa Calm     90 % 0.00 in /  0 mm
04:21 43.9 °F /  6.6 °C 41.2 °F /  5.1 °C 30.22 in /  1023.2 hPa Calm     90 % 0.00 in /  0 mm
04:26 43.9 °F /  6.6 °C 41.2 °F /  5.1 °C 30.22 in /  1023.2 hPa SE 1.2 mph /  1.9 km/h 1.2 mph /  1.9 km/h 90 % 0.00 in /  0 mm
04:31 43.9 °F /  6.6 °C 41.2 °F /  5.1 °C 30.23 in /  1023.6 hPa Calm     90 % 0.00 in /  0 mm
04:36 43.9 °F /  6.6 °C 41.2 °F /  5.1 °C 30.23 in /  1023.6 hPa Calm     90 % 0.00 in /  0 mm
04:41 44.1 °F /  6.7 °C 41.6 °F /  5.3 °C 30.23 in /  1023.6 hPa Calm     91 % 0.00 in /  0 mm
04:46 44.0 °F /  6.7 °C 41.3 °F /  5.2 °C 30.23 in /  1023.6 hPa Calm     90 % 0.00 in /  0 mm
04:51 43.7 °F /  6.5 °C 41.0 °F /  5 °C 30.23 in /  1023.6 hPa Calm     90 % 0.00 in /  0 mm
04:56 43.6 °F /  6.4 °C 41.1 °F /  5.1 °C 30.23 in /  1023.6 hPa Calm     91 % 0.00 in /  0 mm
05:01 43.7 °F /  6.5 °C 41.2 °F /  5.1 °C 30.23 in /  1023.6 hPa Calm     91 % 0.00 in /  0 mm
05:06 43.9 °F /  6.6 °C 41.4 °F /  5.2 °C 30.23 in /  1023.6 hPa Calm     91 % 0.00 in /  0 mm
05:11 44.2 °F /  6.8 °C 41.7 °F /  5.4 °C 30.23 in /  1023.6 hPa Calm     91 % 0.00 in /  0 mm
05:16 44.5 °F /  6.9 °C 42.0 °F /  5.6 °C 30.23 in /  1023.6 hPa Calm   0.1 mph /  0.2 km/h 91 % 0.00 in /  0 mm
05:21 44.4 °F /  6.9 °C 41.7 °F /  5.4 °C 30.23 in /  1023.6 hPa Calm     90 % 0.00 in /  0 mm
05:26 44.3 °F /  6.8 °C 41.6 °F /  5.3 °C 30.23 in /  1023.6 hPa Calm     90 % 0.00 in /  0 mm
05:31 44.4 °F /  6.9 °C 41.7 °F /  5.4 °C 30.23 in /  1023.6 hPa Calm     90 % 0.00 in /  0 mm
05:36 44.6 °F /  7 °C 41.6 °F /  5.3 °C 30.23 in /  1023.6 hPa ESE 1.2 mph /  1.9 km/h   89 % 0.00 in /  0 mm
05:41 44.6 °F /  7 °C 41.6 °F /  5.3 °C 30.23 in /  1023.6 hPa Calm     89 % 0.00 in /  0 mm
05:46 44.7 °F /  7.1 °C 41.7 °F /  5.4 °C 30.24 in /  1023.9 hPa Calm     89 % 0.00 in /  0 mm
05:51 44.7 °F /  7.1 °C 41.7 °F /  5.4 °C 30.24 in /  1023.9 hPa Calm     89 % 0.00 in /  0 mm
05:56 44.7 °F /  7.1 °C 41.7 °F /  5.4 °C 30.24 in /  1023.9 hPa Calm     89 % 0.00 in /  0 mm
06:01 44.5 °F /  6.9 °C 41.5 °F /  5.3 °C 30.24 in /  1023.9 hPa Calm     89 % 0.00 in /  0 mm
06:06 44.4 °F /  6.9 °C 41.4 °F /  5.2 °C 30.24 in /  1023.9 hPa Calm     89 % 0.00 in /  0 mm
06:11 44.5 °F /  6.9 °C 41.7 °F /  5.4 °C 30.24 in /  1023.9 hPa Calm     90 % 0.00 in /  0 mm
06:16 44.5 °F /  6.9 °C 41.7 °F /  5.4 °C 30.24 in /  1023.9 hPa ESE 1.2 mph /  1.9 km/h 1.2 mph /  1.9 km/h 90 % 0.00 in /  0 mm
06:21 44.5 °F /  6.9 °C 41.7 °F /  5.4 °C 30.24 in /  1023.9 hPa Calm     90 % 0.00 in /  0 mm
06:26 44.5 °F /  6.9 °C 41.7 °F /  5.4 °C 30.24 in /  1023.9 hPa ESE 1.2 mph /  1.9 km/h 1.2 mph /  1.9 km/h 90 % 0.00 in /  0 mm
06:31 44.6 °F /  7 °C 41.8 °F /  5.4 °C 30.24 in /  1023.9 hPa Calm     90 % 0.00 in /  0 mm
06:36 44.7 °F /  7.1 °C 42.2 °F /  5.7 °C 30.25 in /  1024.3 hPa Calm     91 % 0.00 in /  0 mm
06:41 44.8 °F /  7.1 °C 42.3 °F /  5.7 °C 30.24 in /  1023.9 hPa Calm     91 % 0.00 in /  0 mm
06:46 44.8 °F /  7.1 °C 42.0 °F /  5.6 °C 30.25 in /  1024.3 hPa Calm     90 % 0.00 in /  0 mm
06:51 44.7 °F /  7.1 °C 42.2 °F /  5.7 °C 30.25 in /  1024.3 hPa Calm     91 % 0.00 in /  0 mm
06:57 44.7 °F /  7.1 °C 42.2 °F /  5.7 °C 30.25 in /  1024.3 hPa Calm     91 % 0.00 in /  0 mm
07:01 45.0 °F /  7.2 °C 42.5 °F /  5.8 °C 30.25 in /  1024.3 hPa Calm     91 % 0.00 in /  0 mm
07:07 45.2 °F /  7.3 °C 42.7 °F /  5.9 °C 30.25 in /  1024.3 hPa Calm     91 % 0.00 in /  0 mm
07:12 45.3 °F /  7.4 °C 42.8 °F /  6 °C 30.25 in /  1024.3 hPa Calm     91 % 0.00 in /  0 mm
07:17 45.5 °F /  7.5 °C 42.7 °F /  5.9 °C 30.25 in /  1024.3 hPa Calm     90 % 0.00 in /  0 mm
07:22 45.7 °F /  7.6 °C 42.9 °F /  6.1 °C 30.25 in /  1024.3 hPa Calm     90 % 0.00 in /  0 mm
07:27 45.9 °F /  7.7 °C 43.1 °F /  6.2 °C 30.25 in /  1024.3 hPa Calm     90 % 0.00 in /  0 mm
07:32 46.0 °F /  7.8 °C 43.2 °F /  6.2 °C 30.25 in /  1024.3 hPa Calm     90 % 0.00 in /  0 mm
07:37 46.2 °F /  7.9 °C 43.4 °F /  6.3 °C 30.25 in /  1024.3 hPa Calm     90 % 0.00 in /  0 mm
07:42 46.6 °F /  8.1 °C 43.8 °F /  6.6 °C 30.26 in /  1024.6 hPa Calm     90 % 0.00 in /  0 mm
07:47 46.9 °F /  8.3 °C 43.8 °F /  6.6 °C 30.26 in /  1024.6 hPa Calm     89 % 0.00 in /  0 mm
07:52 47.7 °F /  8.7 °C 44.6 °F /  7 °C 30.26 in /  1024.6 hPa Calm     89 % 0.00 in /  0 mm
07:57 48.8 °F /  9.3 °C 45.4 °F /  7.4 °C 30.25 in /  1024.3 hPa Calm     88 % 0.00 in /  0 mm
08:02 49.7 °F /  9.8 °C 45.7 °F /  7.6 °C 30.25 in /  1024.3 hPa Calm     86 % 0.00 in /  0 mm
08:07 50.6 °F /  10.3 °C 46.6 °F /  8.1 °C 30.26 in /  1024.6 hPa Calm     86 % 0.00 in /  0 mm
08:12 51.7 °F /  10.9 °C 47.0 °F /  8.3 °C 30.26 in /  1024.6 hPa Calm     84 % 0.00 in /  0 mm
08:17 52.6 °F /  11.4 °C 46.9 °F /  8.3 °C 30.26 in /  1024.6 hPa Calm     81 % 0.00 in /  0 mm
08:22 53.4 °F /  11.9 °C 47.4 °F /  8.6 °C 30.26 in /  1024.6 hPa Calm     80 % 0.00 in /  0 mm
08:27 54.3 °F /  12.4 °C 47.9 °F /  8.8 °C 30.26 in /  1024.6 hPa Calm     79 % 0.00 in /  0 mm
08:32 55.3 °F /  12.9 °C 48.2 °F /  9 °C 30.26 in /  1024.6 hPa Calm     77 % 0.00 in /  0 mm
08:37 56.1 °F /  13.4 °C 48.3 °F /  9.1 °C 30.26 in /  1024.6 hPa Calm     75 % 0.00 in /  0 mm
08:42 56.6 °F /  13.7 °C 48.4 °F /  9.1 °C 30.26 in /  1024.6 hPa Calm     74 % 0.00 in /  0 mm
08:47 57.0 °F /  13.9 °C 48.8 °F /  9.3 °C 30.26 in /  1024.6 hPa SE 1.2 mph /  1.9 km/h   74 % 0.00 in /  0 mm
08:52 57.7 °F /  14.3 °C 48.7 °F /  9.3 °C 30.25 in /  1024.3 hPa Calm     72 % 0.00 in /  0 mm
08:57 58.2 °F /  14.6 °C 48.5 °F /  9.2 °C 30.25 in /  1024.3 hPa Calm     70 % 0.00 in /  0 mm
09:02 59.0 °F /  15 °C 48.8 °F /  9.3 °C 30.25 in /  1024.3 hPa ESE 1.2 mph /  1.9 km/h 1.2 mph /  1.9 km/h 69 % 0.00 in /  0 mm
09:07 59.6 °F /  15.3 °C 49.0 °F /  9.4 °C 30.26 in /  1024.6 hPa East 1.2 mph /  1.9 km/h 1.2 mph /  1.9 km/h 68 % 0.00 in /  0 mm
09:12 60.2 °F /  15.7 °C 49.6 °F /  9.8 °C 30.26 in /  1024.6 hPa SE 1.2 mph /  1.9 km/h   68 % 0.00 in /  0 mm
09:17 60.8 °F /  16 °C 49.0 °F /  9.4 °C 30.25 in /  1024.3 hPa ESE 3.5 mph /  5.6 km/h 3.5 mph /  5.6 km/h 65 % 0.00 in /  0 mm
09:22 61.2 °F /  16.2 °C 48.9 °F /  9.4 °C 30.25 in /  1024.3 hPa ESE 1.2 mph /  1.9 km/h   64 % 0.00 in /  0 mm
09:27 61.7 °F /  16.5 °C 49.0 °F /  9.4 °C 30.25 in /  1024.3 hPa ESE 3.5 mph /  5.6 km/h 3.5 mph /  5.6 km/h 63 % 0.00 in /  0 mm
09:32 62.0 °F /  16.7 °C 48.8 °F /  9.3 °C 30.25 in /  1024.3 hPa South 2.3 mph /  3.7 km/h 2.3 mph /  3.7 km/h 62 % 0.00 in /  0 mm
09:37 62.5 °F /  16.9 °C 48.9 °F /  9.4 °C 30.25 in /  1024.3 hPa SE 3.5 mph /  5.6 km/h 3.5 mph /  5.6 km/h 61 % 0.00 in /  0 mm
09:42 62.8 °F /  17.1 °C 49.1 °F /  9.5 °C 30.25 in /  1024.3 hPa South 3.5 mph /  5.6 km/h 3.5 mph /  5.6 km/h 61 % 0.00 in /  0 mm
09:47 63.3 °F /  17.4 °C 48.7 °F /  9.3 °C 30.25 in /  1024.3 hPa SSE 3.5 mph /  5.6 km/h 3.5 mph /  5.6 km/h 59 % 0.00 in /  0 mm
09:52 63.4 °F /  17.4 °C 49.3 °F /  9.6 °C 30.24 in /  1023.9 hPa SSE 3.5 mph /  5.6 km/h 3.5 mph /  5.6 km/h 60 % 0.00 in /  0 mm
09:57 63.9 °F /  17.7 °C 50.2 °F /  10.1 °C 30.24 in /  1023.9 hPa SE 1.0 mph /  1.6 km/h 1.0 mph /  1.6 km/h 61 % 0.00 in /  0 mm
10:02 64.5 °F /  18.1 °C 49.8 °F /  9.9 °C 30.24 in /  1023.9 hPa East 2.3 mph /  3.7 km/h 2.3 mph /  3.7 km/h 59 % 0.00 in /  0 mm
10:07 64.7 °F /  18.2 °C 49.6 °F /  9.8 °C 30.24 in /  1023.9 hPa SSE 3.5 mph /  5.6 km/h 3.5 mph /  5.6 km/h 58 % 0.00 in /  0 mm
10:12 64.8 °F /  18.2 °C 49.7 °F /  9.8 °C 30.24 in /  1023.9 hPa NNW 3.5 mph /  5.6 km/h 3.5 mph /  5.6 km/h 58 % 0.00 in /  0 mm
10:17 64.4 °F /  18 °C 49.8 °F /  9.9 °C 30.24 in /  1023.9 hPa NNW 1.2 mph /  1.9 km/h 1.2 mph /  1.9 km/h 59 % 0.00 in /  0 mm
10:22 64.6 °F /  18.1 °C 50.8 °F /  10.4 °C 30.24 in /  1023.9 hPa SSE 2.3 mph /  3.7 km/h   61 % 0.00 in /  0 mm
10:27 64.8 °F /  18.2 °C 50.1 °F /  10.1 °C 30.24 in /  1023.9 hPa SE 1.2 mph /  1.9 km/h 1.2 mph /  1.9 km/h 59 % 0.00 in /  0 mm
10:32 65.2 °F /  18.4 °C 50.0 °F /  10 °C 30.24 in /  1023.9 hPa NW 1.2 mph /  1.9 km/h 1.2 mph /  1.9 km/h 58 % 0.00 in /  0 mm
10:37 65.3 °F /  18.5 °C 50.6 °F /  10.3 °C 30.24 in /  1023.9 hPa South 3.5 mph /  5.6 km/h 3.5 mph /  5.6 km/h 59 % 0.00 in /  0 mm
10:42 65.4 °F /  18.6 °C 49.8 °F /  9.9 °C 30.24 in /  1023.9 hPa NNW 2.3 mph /  3.7 km/h 2.3 mph /  3.7 km/h 57 % 0.00 in /  0 mm
10:47 65.0 °F /  18.3 °C 49.4 °F /  9.7 °C 30.24 in /  1023.9 hPa NE 2.3 mph /  3.7 km/h 2.3 mph /  3.7 km/h 57 % 0.00 in /  0 mm
10:52 65.3 °F /  18.5 °C 50.1 °F /  10.1 °C 30.23 in /  1023.6 hPa NW 2.3 mph /  3.7 km/h 2.3 mph /  3.7 km/h 58 % 0.00 in /  0 mm
10:57 65.4 °F /  18.6 °C 50.7 °F /  10.4 °C 30.23 in /  1023.6 hPa SSE 1.2 mph /  1.9 km/h 1.2 mph /  1.9 km/h 59 % 0.00 in /  0 mm
11:02 66.2 °F /  19 °C 50.5 °F /  10.3 °C 30.23 in /  1023.6 hPa SSE 2.3 mph /  3.7 km/h 2.3 mph /  3.7 km/h 57 % 0.00 in /  0 mm
11:07 67.1 °F /  19.5 °C 51.4 °F /  10.8 °C 30.23 in /  1023.6 hPa East 1.2 mph /  1.9 km/h   57 % 0.00 in /  0 mm
11:12 67.7 °F /  19.8 °C 51.4 °F /  10.8 °C 30.23 in /  1023.6 hPa SE 1.2 mph /  1.9 km/h   56 % 0.00 in /  0 mm
11:17 67.3 °F /  19.6 °C 50.6 °F /  10.3 °C 30.22 in /  1023.2 hPa NNW 1.2 mph /  1.9 km/h 1.2 mph /  1.9 km/h 55 % 0.00 in /  0 mm
11:22 66.9 °F /  19.4 °C 50.2 °F /  10.1 °C 30.22 in /  1023.2 hPa NW 3.5 mph /  5.6 km/h 3.5 mph /  5.6 km/h 55 % 0.00 in /  0 mm
11:27 67.1 °F /  19.5 °C 51.4 °F /  10.8 °C 30.22 in /  1023.2 hPa NE 1.0 mph /  1.6 km/h   57 % 0.00 in /  0 mm
11:32 67.3 °F /  19.6 °C 50.6 °F /  10.3 °C 30.22 in /  1023.2 hPa NW 1.2 mph /  1.9 km/h 1.2 mph /  1.9 km/h 55 % 0.00 in /  0 mm
11:37 67.1 °F /  19.5 °C 50.4 °F /  10.2 °C 30.22 in /  1023.2 hPa WNW 2.3 mph /  3.7 km/h 2.3 mph /  3.7 km/h 55 % 0.00 in /  0 mm
11:42 67.5 °F /  19.7 °C 51.2 °F /  10.7 °C 30.22 in /  1023.2 hPa NW 2.3 mph /  3.7 km/h 2.3 mph /  3.7 km/h 56 % 0.00 in /  0 mm
11:47 67.9 °F /  19.9 °C 51.6 °F /  10.9 °C 30.21 in /  1022.9 hPa WNW 3.0 mph /  4.8 km/h 3.0 mph /  4.8 km/h 56 % 0.00 in /  0 mm
11:52 68.1 °F /  20.1 °C 52.3 °F /  11.3 °C 30.21 in /  1022.9 hPa West 1.2 mph /  1.9 km/h 1.2 mph /  1.9 km/h 57 % 0.00 in /  0 mm
11:57 68.7 °F /  20.4 °C 52.8 °F /  11.6 °C 30.21 in /  1022.9 hPa Calm     57 % 0.00 in /  0 mm
12:02 69.2 °F /  20.7 °C 51.8 °F /  11 °C 30.20 in /  1022.6 hPa NW 1.2 mph /  1.9 km/h 1.2 mph /  1.9 km/h 54 % 0.00 in /  0 mm
12:07 69.1 °F /  20.6 °C 51.8 °F /  11 °C 30.20 in /  1022.6 hPa NW 2.3 mph /  3.7 km/h   54 % 0.00 in /  0 mm
12:12 69.6 °F /  20.9 °C 52.7 °F /  11.5 °C 30.20 in /  1022.6 hPa Calm     55 % 0.00 in /  0 mm
12:17 70.6 °F /  21.4 °C 53.1 °F /  11.7 °C 30.19 in /  1022.2 hPa NW 1.2 mph /  1.9 km/h   54 % 0.00 in /  0 mm
12:22 70.7 °F /  21.5 °C 52.7 °F /  11.5 °C 30.19 in /  1022.2 hPa NW 3.5 mph /  5.6 km/h 3.5 mph /  5.6 km/h 53 % 0.00 in /  0 mm
12:27 70.3 °F /  21.3 °C 51.8 °F /  11 °C 30.19 in /  1022.2 hPa WNW 2.3 mph /  3.7 km/h 2.3 mph /  3.7 km/h 52 % 0.00 in /  0 mm
12:32 70.2 °F /  21.2 °C 52.8 °F /  11.6 °C 30.18 in /  1021.9 hPa Calm   0.3 mph /  0.5 km/h 54 % 0.00 in /  0 mm
12:37 70.5 °F /  21.4 °C 52.5 °F /  11.4 °C 30.18 in /  1021.9 hPa Calm     53 % 0.00 in /  0 mm
12:42 71.1 °F /  21.7 °C 52.6 °F /  11.4 °C 30.17 in /  1021.6 hPa WSW 2.3 mph /  3.7 km/h 2.3 mph /  3.7 km/h 52 % 0.00 in /  0 mm
12:47 71.2 °F /  21.8 °C 52.1 °F /  11.2 °C 30.17 in /  1021.6 hPa NW 2.3 mph /  3.7 km/h 2.3 mph /  3.7 km/h 51 % 0.00 in /  0 mm
12:52 71.4 °F /  21.9 °C 52.3 °F /  11.3 °C 30.17 in /  1021.6 hPa NW 1.2 mph /  1.9 km/h 1.2 mph /  1.9 km/h 51 % 0.00 in /  0 mm
12:57 71.8 °F /  22.1 °C 52.2 °F /  11.2 °C 30.16 in /  1021.2 hPa WNW 1.2 mph /  1.9 km/h   50 % 0.00 in /  0 mm
13:02 72.3 °F /  22.4 °C 52.6 °F /  11.4 °C 30.16 in /  1021.2 hPa Calm   0.9 mph /  1.4 km/h 50 % 0.00 in /  0 mm
13:07 72.4 °F /  22.4 °C 52.7 °F /  11.5 °C 30.16 in /  1021.2 hPa NW 1.2 mph /  1.9 km/h 1.2 mph /  1.9 km/h 50 % 0.00 in /  0 mm
13:13 72.7 °F /  22.6 °C 52.4 °F /  11.3 °C 30.15 in /  1020.9 hPa NNW 1.2 mph /  1.9 km/h 1.2 mph /  1.9 km/h 49 % 0.00 in /  0 mm
13:18 73.1 °F /  22.8 °C 52.8 °F /  11.6 °C 30.15 in /  1020.9 hPa Calm     49 % 0.00 in /  0 mm
13:23 73.4 °F /  23 °C 53.6 °F /  12 °C 30.14 in /  1020.5 hPa Calm     50 % 0.00 in /  0 mm
13:28 73.3 °F /  22.9 °C 52.4 °F /  11.3 °C 30.14 in /  1020.5 hPa NW 2.3 mph /  3.7 km/h 2.3 mph /  3.7 km/h 48 % 0.00 in /  0 mm
13:33 73.4 °F /  23 °C 52.5 °F /  11.4 °C 30.14 in /  1020.5 hPa NW 2.3 mph /  3.7 km/h 2.3 mph /  3.7 km/h 48 % 0.00 in /  0 mm
13:38 73.5 °F /  23.1 °C 52.0 °F /  11.1 °C 30.13 in /  1020.2 hPa Calm     47 % 0.00 in /  0 mm
13:43 73.6 °F /  23.1 °C 51.5 °F /  10.8 °C 30.13 in /  1020.2 hPa NW 1.2 mph /  1.9 km/h 1.2 mph /  1.9 km/h 46 % 0.00 in /  0 mm
13:48 73.7 °F /  23.2 °C 51.0 °F /  10.6 °C 30.13 in /  1020.2 hPa WNW 1.2 mph /  1.9 km/h 1.2 mph /  1.9 km/h 45 % 0.00 in /  0 mm
13:53 74.0 °F /  23.3 °C 51.3 °F /  10.7 °C 30.12 in /  1019.9 hPa NNW 2.3 mph /  3.7 km/h 2.3 mph /  3.7 km/h 45 % 0.00 in /  0 mm
13:58 73.9 °F /  23.3 °C 50.6 °F /  10.3 °C 30.12 in /  1019.9 hPa Calm     44 % 0.00 in /  0 mm
14:03 74.2 °F /  23.4 °C 51.5 °F /  10.8 °C 30.12 in /  1019.9 hPa WSW 1.2 mph /  1.9 km/h 1.2 mph /  1.9 km/h 45 % 0.00 in /  0 mm
14:08 74.5 °F /  23.6 °C 51.8 °F /  11 °C 30.12 in /  1019.9 hPa NW 2.3 mph /  3.7 km/h 2.3 mph /  3.7 km/h 45 % 0.00 in /  0 mm
14:13 74.6 °F /  23.7 °C 51.9 °F /  11.1 °C 30.11 in /  1019.5 hPa NW 3.5 mph /  5.6 km/h 3.5 mph /  5.6 km/h 45 % 0.00 in /  0 mm
14:18 74.5 °F /  23.6 °C 50.5 °F /  10.3 °C 30.11 in /  1019.5 hPa NW 1.2 mph /  1.9 km/h 1.2 mph /  1.9 km/h 43 % 0.00 in /  0 mm
14:23 74.5 °F /  23.6 °C 49.2 °F /  9.6 °C 30.11 in /  1019.5 hPa NW 1.2 mph /  1.9 km/h 1.2 mph /  1.9 km/h 41 % 0.00 in /  0 mm
14:28 74.6 °F /  23.7 °C 48.7 °F /  9.3 °C 30.11 in /  1019.5 hPa WNW 1.0 mph /  1.6 km/h 1.0 mph /  1.6 km/h 40 % 0.00 in /  0 mm
14:33 74.5 °F /  23.6 °C 49.2 °F /  9.6 °C 30.10 in /  1019.2 hPa Calm     41 % 0.00 in /  0 mm
14:38 75.0 °F /  23.9 °C 49.7 °F /  9.8 °C 30.10 in /  1019.2 hPa Calm     41 % 0.00 in /  0 mm
14:43 75.3 °F /  24.1 °C 50.0 °F /  10 °C 30.10 in /  1019.2 hPa NW 1.0 mph /  1.6 km/h 1.0 mph /  1.6 km/h 41 % 0.00 in /  0 mm
14:48 75.3 °F /  24.1 °C 50.6 °F /  10.3 °C 30.09 in /  1018.8 hPa Calm     42 % 0.00 in /  0 mm
14:53 75.4 °F /  24.1 °C 51.3 °F /  10.7 °C 30.09 in /  1018.8 hPa Calm     43 % 0.00 in /  0 mm
14:58 75.4 °F /  24.1 °C 50.7 °F /  10.4 °C 30.09 in /  1018.8 hPa Calm     42 % 0.00 in /  0 mm
15:03 75.3 °F /  24.1 °C 50.0 °F /  10 °C 30.09 in /  1018.8 hPa Calm     41 % 0.00 in /  0 mm
15:08 75.2 °F /  24 °C 49.9 °F /  9.9 °C 30.09 in /  1018.8 hPa Calm     41 % 0.00 in /  0 mm
15:13 75.1 °F /  23.9 °C 49.1 °F /  9.5 °C 30.08 in /  1018.5 hPa NW 1.2 mph /  1.9 km/h   40 % 0.00 in /  0 mm
15:18 75.0 °F /  23.9 °C 49.7 °F /  9.8 °C 30.09 in /  1018.8 hPa Calm     41 % 0.00 in /  0 mm
15:23 75.0 °F /  23.9 °C 50.3 °F /  10.2 °C 30.09 in /  1018.8 hPa NW 1.2 mph /  1.9 km/h 1.2 mph /  1.9 km/h 42 % 0.00 in /  0 mm
15:28 74.8 °F /  23.8 °C 49.5 °F /  9.7 °C 30.08 in /  1018.5 hPa NW 1.2 mph /  1.9 km/h 1.2 mph /  1.9 km/h 41 % 0.00 in /  0 mm
15:33 74.5 °F /  23.6 °C 49.2 °F /  9.6 °C 30.08 in /  1018.5 hPa WSW 1.2 mph /  1.9 km/h   41 % 0.00 in /  0 mm
15:38 74.3 °F /  23.5 °C 48.4 °F /  9.1 °C 30.08 in /  1018.5 hPa NW 1.2 mph /  1.9 km/h   40 % 0.00 in /  0 mm
15:43 74.3 °F /  23.5 °C 48.4 °F /  9.1 °C 30.08 in /  1018.5 hPa West 1.2 mph /  1.9 km/h 1.2 mph /  1.9 km/h 40 % 0.00 in /  0 mm
15:48 74.2 °F /  23.4 °C 47.6 °F /  8.7 °C 30.08 in /  1018.5 hPa WNW 1.2 mph /  1.9 km/h 1.2 mph /  1.9 km/h 39 % 0.00 in /  0 mm
15:53 74.2 °F /  23.4 °C 47.6 °F /  8.7 °C 30.08 in /  1018.5 hPa NNW 1.2 mph /  1.9 km/h 1.2 mph /  1.9 km/h 39 % 0.00 in /  0 mm
15:58 74.2 °F /  23.4 °C 48.3 °F /  9.1 °C 30.08 in /  1018.5 hPa Calm   0.1 mph /  0.2 km/h 40 % 0.00 in /  0 mm
16:03 74.1 °F /  23.4 °C 49.5 °F /  9.7 °C 30.08 in /  1018.5 hPa Calm     42 % 0.00 in /  0 mm
16:08 73.9 °F /  23.3 °C 50.0 °F /  10 °C 30.08 in /  1018.5 hPa NW 1.2 mph /  1.9 km/h 1.2 mph /  1.9 km/h 43 % 0.00 in /  0 mm
16:13 73.8 °F /  23.2 °C 49.3 °F /  9.6 °C 30.08 in /  1018.5 hPa WNW 1.2 mph /  1.9 km/h 1.2 mph /  1.9 km/h 42 % 0.00 in /  0 mm
16:18 73.7 °F /  23.2 °C 49.2 °F /  9.6 °C 30.08 in /  1018.5 hPa WNW 1.2 mph /  1.9 km/h   42 % 0.00 in /  0 mm
16:20 73.7 °F /  23.2 °C 49.2 °F /  9.6 °C 30.08 in /  1018.5 hPa Calm     42 % 0.00 in /  0 mm
16:25 73.6 °F /  23.1 °C 49.1 °F /  9.5 °C 30.08 in /  1018.5 hPa WNW 1.2 mph /  1.9 km/h 1.2 mph /  1.9 km/h 42 % 0.00 in /  0 mm
16:30 73.5 °F /  23.1 °C 49.6 °F /  9.8 °C 30.08 in /  1018.5 hPa WNW 1.2 mph /  1.9 km/h 1.2 mph /  1.9 km/h 43 % 0.00 in /  0 mm
16:35 73.2 °F /  22.9 °C 49.4 °F /  9.7 °C 30.09 in /  1018.8 hPa WNW 1.2 mph /  1.9 km/h   43 % 0.00 in /  0 mm
16:40 73.1 °F /  22.8 °C 50.5 °F /  10.3 °C 30.08 in /  1018.5 hPa Calm     45 % 0.00 in /  0 mm
16:45 72.7 °F /  22.6 °C 50.7 °F /  10.4 °C 30.08 in /  1018.5 hPa Calm     46 % 0.00 in /  0 mm
16:50 72.4 °F /  22.4 °C 51.0 °F /  10.6 °C 30.09 in /  1018.8 hPa Calm     47 % 0.00 in /  0 mm
16:55 72.0 °F /  22.2 °C 51.8 °F /  11 °C 30.09 in /  1018.8 hPa Calm     49 % 0.00 in /  0 mm
17:00 71.6 °F /  22 °C 52.0 °F /  11.1 °C 30.09 in /  1018.8 hPa Calm     50 % 0.00 in /  0 mm
17:05 71.1 °F /  21.7 °C 51.5 °F /  10.8 °C 30.09 in /  1018.8 hPa Calm     50 % 0.00 in /  0 mm
17:10 70.6 °F /  21.4 °C 51.6 °F /  10.9 °C 30.09 in /  1018.8 hPa Calm     51 % 0.00 in /  0 mm
17:15 70.1 °F /  21.2 °C 51.7 °F /  10.9 °C 30.09 in /  1018.8 hPa Calm     52 % 0.00 in /  0 mm
17:20 69.6 °F /  20.9 °C 51.2 °F /  10.7 °C 30.09 in /  1018.8 hPa Calm     52 % 0.00 in /  0 mm
17:25 69.2 °F /  20.7 °C 51.3 °F /  10.7 °C 30.09 in /  1018.8 hPa Calm     53 % 0.00 in /  0 mm
17:30 68.7 °F /  20.4 °C 50.9 °F /  10.5 °C 30.09 in /  1018.8 hPa Calm     53 % 0.00 in /  0 mm
17:35 68.1 °F /  20.1 °C 50.8 °F /  10.4 °C 30.09 in /  1018.8 hPa Calm     54 % 0.00 in /  0 mm
17:40 67.3 °F /  19.6 °C 50.6 °F /  10.3 °C 30.09 in /  1018.8 hPa Calm     55 % 0.00 in /  0 mm
17:45 66.8 °F /  19.3 °C 50.6 °F /  10.3 °C 30.09 in /  1018.8 hPa Calm     56 % 0.00 in /  0 mm
17:50 66.4 °F /  19.1 °C 50.7 °F /  10.4 °C 30.09 in /  1018.8 hPa Calm     57 % 0.00 in /  0 mm
17:55 65.6 °F /  18.7 °C 50.4 °F /  10.2 °C 30.09 in /  1018.8 hPa Calm     58 % 0.00 in /  0 mm
18:00 64.9 °F /  18.3 °C 51.1 °F /  10.6 °C 30.09 in /  1018.8 hPa Calm     61 % 0.00 in /  0 mm
18:05 64.3 °F /  17.9 °C 51.0 °F /  10.6 °C 30.09 in /  1018.8 hPa Calm     62 % 0.00 in /  0 mm
18:10 63.6 °F /  17.6 °C 51.6 °F /  10.9 °C 30.09 in /  1018.8 hPa Calm     65 % 0.00 in /  0 mm
18:15 63.0 °F /  17.2 °C 51.5 °F /  10.8 °C 30.09 in /  1018.8 hPa Calm     66 % 0.00 in /  0 mm
18:20 62.5 °F /  16.9 °C 51.4 °F /  10.8 °C 30.09 in /  1018.8 hPa Calm     67 % 0.00 in /  0 mm
18:25 61.8 °F /  16.6 °C 50.7 °F /  10.4 °C 30.10 in /  1019.2 hPa Calm     67 % 0.00 in /  0 mm
18:30 61.3 °F /  16.3 °C 50.6 °F /  10.3 °C 30.10 in /  1019.2 hPa Calm     68 % 0.00 in /  0 mm
18:35 61.0 °F /  16.1 °C 50.8 °F /  10.4 °C 30.10 in /  1019.2 hPa Calm     69 % 0.00 in /  0 mm
18:40 60.6 °F /  15.9 °C 50.8 °F /  10.4 °C 30.10 in /  1019.2 hPa Calm     70 % 0.00 in /  0 mm
18:45 60.4 °F /  15.8 °C 50.6 °F /  10.3 °C 30.10 in /  1019.2 hPa Calm     70 % 0.00 in /  0 mm
18:50 59.9 °F /  15.5 °C 50.1 °F /  10.1 °C 30.10 in /  1019.2 hPa Calm     70 % 0.00 in /  0 mm
18:55 59.4 °F /  15.2 °C 50.0 °F /  10 °C 30.10 in /  1019.2 hPa Calm     71 % 0.00 in /  0 mm
19:00 59.0 °F /  15 °C 50.0 °F /  10 °C 30.10 in /  1019.2 hPa Calm     72 % 0.00 in /  0 mm
19:05 58.5 °F /  14.7 °C 50.2 °F /  10.1 °C 30.10 in /  1019.2 hPa Calm     74 % 0.00 in /  0 mm
19:10 58.2 °F /  14.6 °C 50.0 °F /  10 °C 30.10 in /  1019.2 hPa Calm     74 % 0.00 in /  0 mm
19:15 57.8 °F /  14.3 °C 49.9 °F /  9.9 °C 30.10 in /  1019.2 hPa Calm     75 % 0.00 in /  0 mm
19:20 57.7 °F /  14.3 °C 50.2 °F /  10.1 °C 30.11 in /  1019.5 hPa Calm     76 % 0.00 in /  0 mm
19:25 57.6 °F /  14.2 °C 49.7 °F /  9.8 °C 30.10 in /  1019.2 hPa Calm     75 % 0.00 in /  0 mm
19:30 57.4 °F /  14.1 °C 49.5 °F /  9.7 °C 30.11 in /  1019.5 hPa Calm     75 % 0.00 in /  0 mm
19:35 57.1 °F /  13.9 °C 49.2 °F /  9.6 °C 30.11 in /  1019.5 hPa Calm     75 % 0.00 in /  0 mm
19:40 57.0 °F /  13.9 °C 48.8 °F /  9.3 °C 30.10 in /  1019.2 hPa Calm     74 % 0.00 in /  0 mm
19:46 57.6 °F /  14.2 °C 48.6 °F /  9.2 °C 30.11 in /  1019.5 hPa Calm     72 % 0.00 in /  0 mm
19:51 57.8 °F /  14.3 °C 48.5 °F /  9.2 °C 30.11 in /  1019.5 hPa Calm     71 % 0.00 in /  0 mm
19:56 57.7 °F /  14.3 °C 48.4 °F /  9.1 °C 30.11 in /  1019.5 hPa Calm     71 % 0.00 in /  0 mm
20:01 57.9 °F /  14.4 °C 48.2 °F /  9 °C 30.11 in /  1019.5 hPa Calm     70 % 0.00 in /  0 mm
20:06 57.9 °F /  14.4 °C 48.2 °F /  9 °C 30.11 in /  1019.5 hPa Calm     70 % 0.00 in /  0 mm
20:11 57.8 °F /  14.3 °C 47.7 °F /  8.7 °C 30.11 in /  1019.5 hPa Calm     69 % 0.00 in /  0 mm
20:16 57.6 °F /  14.2 °C 47.5 °F /  8.6 °C 30.11 in /  1019.5 hPa Calm     69 % 0.00 in /  0 mm
20:21 57.4 °F /  14.1 °C 47.7 °F /  8.7 °C 30.11 in /  1019.5 hPa Calm     70 % 0.00 in /  0 mm
20:23 57.2 °F /  14 °C 47.5 °F /  8.6 °C 30.11 in /  1019.5 hPa Calm     70 % 0.00 in /  0 mm
20:28 56.7 °F /  13.7 °C 47.4 °F /  8.6 °C 30.11 in /  1019.5 hPa Calm     71 % 0.00 in /  0 mm
20:33 56.3 °F /  13.5 °C 47.4 °F /  8.6 °C 30.10 in /  1019.2 hPa Calm     72 % 0.00 in /  0 mm
20:38 55.9 °F /  13.3 °C 47.7 °F /  8.7 °C 30.10 in /  1019.2 hPa Calm     74 % 0.00 in /  0 mm
20:43 55.6 °F /  13.1 °C 47.4 °F /  8.6 °C 30.10 in /  1019.2 hPa Calm     74 % 0.00 in /  0 mm
20:48 55.4 °F /  13 °C 48.0 °F /  8.9 °C 30.10 in /  1019.2 hPa Calm     76 % 0.00 in /  0 mm
20:53 55.1 °F /  12.8 °C 48.0 °F /  8.9 °C 30.10 in /  1019.2 hPa Calm     77 % 0.00 in /  0 mm
20:58 54.9 °F /  12.7 °C 47.8 °F /  8.8 °C 30.10 in /  1019.2 hPa Calm     77 % 0.00 in /  0 mm
21:03 54.8 °F /  12.7 °C 47.7 °F /  8.7 °C 30.11 in /  1019.5 hPa Calm     77 % 0.00 in /  0 mm
21:08 54.6 °F /  12.6 °C 47.5 °F /  8.6 °C 30.10 in /  1019.2 hPa Calm     77 % 0.00 in /  0 mm
21:13 54.3 °F /  12.4 °C 47.2 °F /  8.4 °C 30.10 in /  1019.2 hPa Calm     77 % 0.00 in /  0 mm
21:18 54.0 °F /  12.2 °C 47.3 °F /  8.5 °C 30.10 in /  1019.2 hPa Calm     78 % 0.00 in /  0 mm
21:23 53.6 °F /  12 °C 46.9 °F /  8.3 °C 30.11 in /  1019.5 hPa Calm     78 % 0.00 in /  0 mm
21:28 53.2 °F /  11.8 °C 47.2 °F /  8.4 °C 30.11 in /  1019.5 hPa Calm     80 % 0.00 in /  0 mm
21:33 52.8 °F /  11.6 °C 46.8 °F /  8.2 °C 30.10 in /  1019.2 hPa Calm     80 % 0.00 in /  0 mm
21:38 52.4 °F /  11.3 °C 46.7 °F /  8.2 °C 30.10 in /  1019.2 hPa Calm     81 % 0.00 in /  0 mm
21:43 52.1 °F /  11.2 °C 46.8 °F /  8.2 °C 30.10 in /  1019.2 hPa Calm     82 % 0.00 in /  0 mm
21:48 51.8 °F /  11 °C 46.5 °F /  8.1 °C 30.10 in /  1019.2 hPa Calm     82 % 0.00 in /  0 mm
21:53 51.6 °F /  10.9 °C 46.6 °F /  8.1 °C 30.11 in /  1019.5 hPa Calm     83 % 0.00 in /  0 mm
21:58 51.3 °F /  10.7 °C 46.3 °F /  7.9 °C 30.11 in /  1019.5 hPa Calm     83 % 0.00 in /  0 mm
22:03 51.1 °F /  10.6 °C 46.4 °F /  8 °C 30.10 in /  1019.2 hPa Calm     84 % 0.00 in /  0 mm
22:08 51.0 °F /  10.6 °C 46.3 °F /  7.9 °C 30.11 in /  1019.5 hPa Calm     84 % 0.00 in /  0 mm
22:13 51.2 °F /  10.7 °C 46.5 °F /  8.1 °C 30.11 in /  1019.5 hPa Calm     84 % 0.00 in /  0 mm
22:18 51.4 °F /  10.8 °C 46.4 °F /  8 °C 30.11 in /  1019.5 hPa Calm     83 % 0.00 in /  0 mm
22:23 51.3 °F /  10.7 °C 46.0 °F /  7.8 °C 30.11 in /  1019.5 hPa Calm     82 % 0.00 in /  0 mm
22:28 51.4 °F /  10.8 °C 46.4 °F /  8 °C 30.11 in /  1019.5 hPa Calm     83 % 0.00 in /  0 mm
22:33 51.0 °F /  10.6 °C 45.7 °F /  7.6 °C 30.11 in /  1019.5 hPa Calm     82 % 0.00 in /  0 mm
22:39 50.9 °F /  10.5 °C 46.2 °F /  7.9 °C 30.11 in /  1019.5 hPa Calm     84 % 0.00 in /  0 mm
22:44 51.1 °F /  10.6 °C 46.4 °F /  8 °C 30.11 in /  1019.5 hPa Calm     84 % 0.00 in /  0 mm
22:49 51.0 °F /  10.6 °C 46.3 °F /  7.9 °C 30.12 in /  1019.9 hPa Calm     84 % 0.00 in /  0 mm
22:54 50.9 °F /  10.5 °C 46.2 °F /  7.9 °C 30.12 in /  1019.9 hPa Calm     84 % 0.00 in /  0 mm
22:59 50.7 °F /  10.4 °C 46.0 °F /  7.8 °C 30.12 in /  1019.9 hPa Calm     84 % 0.00 in /  0 mm
23:04 50.3 °F /  10.2 °C 45.6 °F /  7.6 °C 30.12 in /  1019.9 hPa Calm     84 % 0.00 in /  0 mm
23:09 50.0 °F /  10 °C 45.4 °F /  7.4 °C 30.12 in /  1019.9 hPa Calm     84 % 0.00 in /  0 mm
23:14 49.7 °F /  9.8 °C 45.4 °F /  7.4 °C 30.12 in /  1019.9 hPa Calm     85 % 0.00 in /  0 mm
23:19 49.4 °F /  9.7 °C 45.1 °F /  7.3 °C 30.12 in /  1019.9 hPa Calm     85 % 0.00 in /  0 mm
23:24 49.3 °F /  9.6 °C 45.3 °F /  7.4 °C 30.12 in /  1019.9 hPa Calm     86 % 0.00 in /  0 mm
23:29 49.2 °F /  9.6 °C 45.2 °F /  7.3 °C 30.12 in /  1019.9 hPa Calm     86 % 0.00 in /  0 mm
23:34 49.2 °F /  9.6 °C 45.5 °F /  7.5 °C 30.12 in /  1019.9 hPa Calm     87 % 0.00 in /  0 mm
23:39 49.0 °F /  9.4 °C 45.3 °F /  7.4 °C 30.12 in /  1019.9 hPa Calm     87 % 0.00 in /  0 mm
23:44 48.9 °F /  9.4 °C 45.2 °F /  7.3 °C 30.12 in /  1019.9 hPa Calm     87 % 0.00 in /  0 mm
23:49 48.8 °F /  9.3 °C 45.1 °F /  7.3 °C 30.11 in /  1019.5 hPa Calm     87 % 0.00 in /  0 mm
23:54 48.7 °F /  9.3 °C 45.0 °F /  7.2 °C 30.11 in /  1019.5 hPa Calm     87 % 0.00 in /  0 mm
23:59 48.9 °F /  9.4 °C 45.2 °F /  7.3 °C 30.11 in /  1019.5 hPa Calm     87 % 0.00 in /  0 mm
Park Place, Exeter, Tulare County, California, USA
Compliments of Weather Underground - 2.75 mb